Aérodrome :
LOGIN :

S'inscrire | Disclaimer

   EN    FR    IT 

 










Légende :    VFR   VFR Marginal   IFR   IFR Intensif   IFR Très Intensif
Visi : 
Plafond : 
>= 8 km
>= 3000ft
5 à 8 km
1000 à 3000 ft
1500m à 5 km
500 à 1000 ft
800 à 1500m
200 à 500 ft
< 800m
< 200 ft
Symboles :   Orages  Brouillard  Fortes neiges  Fortes précipitations  Vent > 20 kt
SIGMETs :   Divers  Orages  Givrage  Turbulence  Onde Orograph.  Cendres Volcan.






- Altitude de l'aérodrome : 622 ft
- Code IATA : BRS


EGGD - Bristol Int.

DERNIER METAR :
  • 111220Z AUTO VRB03KT 9999 NCD 28/20 Q1015

METARs EXPIRÉS :
  • 111150Z AUTO VRB03KT 9999 NCD 26/20 Q1016
  • 111120Z AUTO VRB02KT 9999 NCD 25/19 Q1016
  • 111050Z AUTO VRB03KT 9999 NCD 25/20 Q1016
  • 111020Z AUTO VRB04KT 9999 NCD 24/19 Q1016
  • 110950Z AUTO 05004KT 360V160 9999 NCD 23/19 Q1016

TAF TAF EGGD
Valide du 11 à 12h jusqu'au 12 à 12h UTC


111104Z 1112/1212 VRB04KT 9999 FEW020
TEMPO 1112/1121 6000 SHRA
PROB30
TEMPO 1113/1118 VRB15G25KT 4000 +SHRA
PROB30
TEMPO 1121/1124 4000 BR BKN004
TEMPO 1200/1208 4000 BR BKN004
PROB30
TEMPO 1210/1212 3000 +SHRA
ATIS : +44 1275 473 666



MET'MAP, la Météo Aéronautique d'un coup d'oeil ! - Copyright ORBIFLY Décembre 2007 - Disclaimer

ORBIFLY MET'MAP TEAM :

Programmation & Développement : Alexandra Zaïnal
Sur une idée originale de : Baudouin d'Aumeries
Assistance à la programmation : Marc-Olivier Méhu
Soutien technique & logistique : Manuel Goepfert

Contact : metmap@orbifly.com




SOURCES & CREDITS :

   NOAA